Time;durP1;ratioP1;P1;durP2;ratioP2;P2;SDS_P1;SDS_P2;PMS_P1;PMS_P2;Temp;Humidity;BMP_temperature;BMP_pressure;BME280_temperature;BME280_humidity;BME280_pressure;Samples;Min_cycle;Max_cycle;Signal;HPM_P1;HPM_P2
2021/12/13 00:02:15;;;;;;;6.45;1.30;;;21.40;99.90;;;;;;5028633;28;20042;-67
2021/12/13 00:04:55;;;;;;;8.43;1.55;;;21.30;99.90;;;;;;5023795;28;20556;-67
2021/12/13 00:07:33;;;;;;;13.93;2.28;;;21.60;99.90;;;;;;5030059;28;20021;-67
2021/12/13 00:10:17;;;;;;;10.00;1.92;;;21.40;99.90;;;;;;5004722;28;20097;-66
2021/12/13 00:12:50;;;;;;;;;;;21.80;99.90;;;;;;5022713;28;20030;-67
2021/12/13 00:15:27;;;;;;;12.68;2.22;;;22.30;99.90;;;;;;5015285;28;19917;-67
2021/12/13 00:17:55;;;;;;;12.20;3.13;;;22.30;99.90;;;;;;5022273;28;20026;-67
2021/12/13 00:20:37;;;;;;;8.52;1.90;;;22.70;99.90;;;;;;5045211;28;20097;-67
2021/12/13 00:23:11;;;;;;;9.52;1.95;;;22.90;99.90;;;;;;5030110;28;20045;-67
2021/12/13 00:25:43;;;;;;;16.35;2.13;;;23.20;99.90;;;;;;5028225;28;20041;-67
2021/12/13 00:28:14;;;;;;;17.48;2.83;;;23.30;99.90;;;;;;5033839;28;20034;-67
2021/12/13 00:31:09;;;;;;;9.75;2.25;;;23.50;99.90;;;;;;5032632;28;20041;-67
2021/12/13 00:34:06;;;;;;;11.18;2.25;;;23.40;99.90;;;;;;5034180;28;20046;-68
2021/12/13 00:36:42;;;;;;;14.82;2.88;;;23.30;99.90;;;;;;5010143;28;20051;-68
2021/12/13 00:39:21;;;;;;;10.25;1.80;;;23.40;99.90;;;;;;5026589;28;20026;-68
2021/12/13 00:41:50;;;;;;;12.07;1.55;;;23.40;99.90;;;;;;5022643;28;20037;-67
2021/12/13 00:44:47;;;;;;;8.95;1.63;;;23.50;99.90;;;;;;5016309;28;20036;-67
2021/12/13 00:47:30;;;;;;;13.75;1.83;;;23.50;99.90;;;;;;5017149;28;20491;-68
2021/12/13 00:50:21;;;;;;;13.77;2.63;;;23.40;99.90;;;;;;4997950;28;20030;-67
2021/12/13 00:52:50;;;;;;;18.55;2.00;;;23.60;99.90;;;;;;5006350;28;20034;-67
2021/12/13 00:55:30;;;;;;;7.45;1.88;;;23.80;99.90;;;;;;5018370;28;20077;-67
2021/12/13 00:58:08;;;;;;;9.40;1.73;;;23.30;99.90;;;;;;5012247;28;20038;-67
2021/12/13 01:00:59;;;;;;;8.65;1.63;;;23.50;99.90;;;;;;4995224;28;20032;-67
2021/12/13 01:03:42;;;;;;;9.93;1.67;;;23.40;99.90;;;;;;5006184;28;20036;-66
2021/12/13 01:06:36;;;;;;;8.25;2.25;;;23.80;99.90;;;;;;5016568;28;20050;-67
2021/12/13 01:09:41;;;;;;;10.60;1.98;;;24.00;99.90;;;;;;5018662;28;20038;-68
2021/12/13 01:12:13;;;;;;;10.85;2.28;;;24.20;99.90;;;;;;5020136;28;20073;-67
2021/12/13 01:14:54;;;;;;;12.88;2.60;;;24.40;99.90;;;;;;5025230;28;20034;-68
2021/12/13 01:17:51;;;;;;;12.50;2.13;;;24.10;99.90;;;;;;5024082;28;20056;-70
2021/12/13 01:20:29;;;;;;;10.38;2.35;;;24.40;99.90;;;;;;5009281;28;20498;-67
2021/12/13 01:23:03;;;;;;;11.00;1.80;;;24.40;99.90;;;;;;5010642;28;20558;-68
2021/12/13 01:26:13;;;;;;;6.18;1.63;;;24.10;99.90;;;;;;5044191;28;20060;-67
2021/12/13 01:28:47;;;;;;;9.63;2.15;;;24.10;99.90;;;;;;5030388;28;20064;-67
2021/12/13 01:31:26;;;;;;;8.95;2.45;;;23.90;99.90;;;;;;5027183;28;20029;-67
2021/12/13 01:33:54;;;;;;;9.63;1.60;;;24.20;99.90;;;;;;5024118;28;20064;-67
2021/12/13 01:36:27;;;;;;;11.35;2.05;;;24.40;99.90;;;;;;5027584;28;20022;-67
2021/12/13 01:39:01;;;;;;;9.77;1.95;;;24.10;99.90;;;;;;5049479;28;20025;-67
2021/12/13 01:41:36;;;;;;;8.77;1.83;;;23.90;99.90;;;;;;5043385;28;20032;-66
2021/12/13 01:44:08;;;;;;;7.05;2.10;;;24.20;99.90;;;;;;5030939;28;20490;-67
2021/12/13 01:46:38;;;;;;;9.95;2.38;;;24.20;99.90;;;;;;5021802;28;20450;-68
2021/12/13 01:49:13;;;;;;;10.68;1.92;;;24.20;99.90;;;;;;5048029;28;20034;-67
2021/12/13 01:51:41;;;;;;;7.90;1.60;;;24.20;99.90;;;;;;5027474;28;20046;-67
2021/12/13 01:54:14;;;;;;;12.40;2.67;;;23.90;99.90;;;;;;5017943;28;20426;-67
2021/12/13 01:57:09;;;;;;;12.10;2.33;;;23.90;99.90;;;;;;5021120;28;20137;-67
2021/12/13 01:59:49;;;;;;;6.57;1.70;;;24.20;99.90;;;;;;5024612;28;20056;-67
2021/12/13 02:02:28;;;;;;;8.15;1.52;;;24.00;99.90;;;;;;5015322;28;20033;-67
2021/12/13 02:05:01;;;;;;;7.38;1.30;;;23.60;99.90;;;;;;5009452;28;20101;-67
2021/12/13 02:07:53;;;;;;;11.18;2.10;;;23.90;99.90;;;;;;5022851;28;20025;-67
2021/12/13 02:10:34;;;;;;;10.65;2.17;;;23.90;99.90;;;;;;5006933;28;20048;-67
2021/12/13 02:13:07;;;;;;;9.27;1.88;;;24.00;99.90;;;;;;5009243;28;20017;-67
2021/12/13 02:18:28;;;;;;;6.53;1.73;;;24.00;99.90;;;;;;5030500;28;20056;-67
2021/12/13 02:21:04;;;;;;;16.63;3.47;;;24.00;99.90;;;;;;5020138;28;20033;-67
2021/12/13 02:23:40;;;;;;;12.02;1.75;;;23.90;99.90;;;;;;5019503;28;20045;-67
2021/12/13 02:26:10;;;;;;;10.85;2.15;;;24.40;99.90;;;;;;5026198;28;20028;-67
2021/12/13 02:28:40;;;;;;;11.02;2.25;;;24.20;99.90;;;;;;5027325;28;20065;-67
2021/12/13 02:31:32;;;;;;;12.25;2.38;;;24.20;99.90;;;;;;5008227;28;20042;-67
2021/12/13 02:34:05;;;;;;;7.35;1.80;;;24.50;99.90;;;;;;5033623;28;20068;-67
2021/12/13 02:36:45;;;;;;;9.60;1.83;;;24.40;99.90;;;;;;5022800;28;20069;-67
2021/12/13 02:39:18;;;;;;;17.15;3.00;;;24.20;99.90;;;;;;5023912;28;20030;-67
2021/12/13 02:41:47;;;;;;;14.52;2.25;;;24.10;99.90;;;;;;5025624;28;20014;-67
2021/12/13 02:44:22;;;;;;;12.25;2.40;;;24.10;99.90;;;;;;5025593;28;20033;-67
2021/12/13 02:46:50;;;;;;;9.02;1.98;;;24.10;99.90;;;;;;5045169;28;20026;-67
2021/12/13 02:49:19;;;;;;;9.60;1.85;;;24.30;99.90;;;;;;5029352;28;20029;-68
2021/12/13 02:51:52;;;;;;;10.85;1.85;;;24.60;99.90;;;;;;5027494;28;20026;-67
2021/12/13 02:54:29;;;;;;;12.40;1.70;;;24.70;99.90;;;;;;5026003;28;20041;-67
2021/12/13 02:57:06;;;;;;;15.80;3.10;;;25.00;99.90;;;;;;5018389;28;20104;-67
2021/12/13 02:59:37;;;;;;;12.73;2.42;;;24.70;99.90;;;;;;5016276;28;20034;-66
2021/12/13 03:02:35;;;;;;;9.27;2.42;;;24.60;99.90;;;;;;5017173;28;20029;-68
2021/12/13 03:05:06;;;;;;;7.78;2.03;;;24.10;99.90;;;;;;5011938;28;20037;-67
2021/12/13 03:07:38;;;;;;;14.10;1.65;;;23.90;99.90;;;;;;5015642;28;20038;-67
2021/12/13 03:10:20;;;;;;;11.27;2.40;;;24.20;99.90;;;;;;4997247;28;20041;-66
2021/12/13 03:12:48;;;;;;;10.25;2.78;;;23.90;99.90;;;;;;5012730;28;20026;-66
2021/12/13 03:15:19;;;;;;;6.43;1.65;;;24.40;99.90;;;;;;5018302;28;20026;-67
2021/12/13 03:18:15;;;;;;;8.23;2.03;;;24.10;99.90;;;;;;5021832;28;20030;-67
2021/12/13 03:21:09;;;;;;;9.27;1.95;;;24.20;99.90;;;;;;5017112;28;20036;-68
2021/12/13 03:24:05;;;;;;;9.85;1.73;;;24.10;99.90;;;;;;5015351;28;20044;-67
2021/12/13 03:26:47;;;;;;;8.65;2.10;;;24.00;99.90;;;;;;4996470;28;20062;-67
2021/12/13 03:29:18;;;;;;;12.63;2.55;;;23.60;99.90;;;;;;5032463;28;20098;-67
2021/12/13 03:31:56;;;;;;;11.60;2.63;;;23.90;99.90;;;;;;5036321;28;20129;-67
2021/12/13 03:34:47;;;;;;;7.47;1.73;;;23.80;99.90;;;;;;5019518;28;20034;-68
2021/12/13 03:37:22;;;;;;;15.00;2.20;;;23.90;99.90;;;;;;4987789;28;20034;-67
2021/12/13 03:39:57;;;;;;;7.35;2.13;;;23.70;99.90;;;;;;4997903;28;20027;-67
2021/12/13 03:42:26;;;;;;;13.70;2.30;;;23.90;99.90;;;;;;5010705;28;20116;-67
2021/12/13 03:45:07;;;;;;;12.88;2.03;;;23.70;99.90;;;;;;5011775;28;20026;-67
2021/12/13 03:47:38;;;;;;;9.00;1.73;;;23.60;99.90;;;;;;4998738;28;20046;-68
2021/12/13 03:50:21;;;;;;;13.63;2.20;;;23.40;99.90;;;;;;5018145;28;20467;-68
2021/12/13 03:52:54;;;;;;;12.00;3.22;;;23.40;99.90;;;;;;5017291;28;20034;-67
2021/12/13 03:55:26;;;;;;;12.38;2.95;;;23.20;99.90;;;;;;4999340;28;20091;-67
2021/12/13 03:57:59;;;;;;;11.75;2.35;;;23.10;99.90;;;;;;4999575;28;20046;-68
2021/12/13 04:00:32;;;;;;;13.30;2.63;;;23.10;99.90;;;;;;5007189;28;20026;-68
2021/12/13 04:03:04;;;;;;;9.30;1.58;;;23.20;99.90;;;;;;5021442;28;20026;-68
2021/12/13 04:05:32;;;;;;;12.63;2.30;;;22.90;99.90;;;;;;5023563;28;20029;-67
2021/12/13 04:08:03;;;;;;;6.68;1.83;;;22.60;99.90;;;;;;5028885;28;20037;-67
2021/12/13 04:10:44;;;;;;;12.88;2.42;;;22.80;99.90;;;;;;5014894;28;20062;-67
2021/12/13 04:13:15;;;;;;;12.90;2.72;;;22.60;99.90;;;;;;5013478;28;20121;-67
2021/12/13 04:16:02;;;;;;;11.05;1.58;;;22.60;99.90;;;;;;5012682;28;20102;-67
2021/12/13 04:21:17;;;;;;;11.98;1.58;;;22.70;99.90;;;;;;5016944;28;20054;-67
2021/12/13 04:23:58;;;;;;;8.93;2.30;;;22.70;99.90;;;;;;5015473;28;20387;-67
2021/12/13 04:26:27;;;;;;;10.27;1.73;;;22.80;99.90;;;;;;5015337;28;20037;-67
2021/12/13 04:28:59;;;;;;;12.95;2.55;;;22.80;99.90;;;;;;5015405;28;20061;-67
2021/12/13 04:31:33;;;;;;;8.55;2.00;;;22.70;99.90;;;;;;5032115;28;20014;-68
2021/12/13 04:34:03;;;;;;;13.20;2.25;;;22.60;99.90;;;;;;5024075;28;20043;-68
2021/12/13 04:36:38;;;;;;;13.82;2.20;;;22.60;99.90;;;;;;4995940;28;20035;-68
2021/12/13 04:39:14;;;;;;;9.52;1.92;;;22.60;99.90;;;;;;5025824;28;20042;-68
2021/12/13 04:42:19;;;;;;;9.50;2.25;;;22.70;99.90;;;;;;4995433;28;20022;-68
2021/12/13 04:45:02;;;;;;;12.25;2.50;;;22.30;99.90;;;;;;5001512;28;20347;-68
2021/12/13 04:47:34;;;;;;;8.93;2.05;;;22.50;99.90;;;;;;5017300;28;20364;-67
2021/12/13 04:50:16;;;;;;;8.68;1.92;;;22.50;99.90;;;;;;5003618;28;20041;-68
2021/12/13 04:52:47;;;;;;;14.27;2.40;;;22.60;99.90;;;;;;5035443;28;20115;-68
2021/12/13 04:55:24;;;;;;;12.50;2.03;;;22.40;99.90;;;;;;5018955;28;20112;-67
2021/12/13 04:57:55;;;;;;;11.70;2.17;;;22.30;99.90;;;;;;5017927;28;20053;-68
2021/12/13 05:00:31;;;;;;;7.70;1.45;;;22.40;99.90;;;;;;5017122;28;20702;-67
2021/12/13 05:03:02;;;;;;;12.65;1.73;;;22.20;99.90;;;;;;5015189;28;20475;-67
2021/12/13 05:05:32;;;;;;;12.10;1.90;;;22.20;99.90;;;;;;5032861;28;20026;-68
2021/12/13 05:08:01;;;;;;;15.70;2.25;;;22.00;99.90;;;;;;5013099;28;20025;-68
2021/12/13 05:10:30;;;;;;;12.95;1.65;;;22.00;99.90;;;;;;5011988;28;20096;-69
2021/12/13 05:13:10;;;;;;;9.35;1.95;;;22.30;99.90;;;;;;5010331;28;20523;-68
2021/12/13 05:15:41;;;;;;;7.85;2.75;;;22.40;99.90;;;;;;5014569;28;20057;-69
2021/12/13 05:18:21;;;;;;;11.95;2.20;;;22.40;99.90;;;;;;5012510;28;20041;-69
2021/12/13 05:20:57;;;;;;;11.85;1.85;;;22.50;99.90;;;;;;5013493;28;20029;-70
2021/12/13 05:23:27;;;;;;;10.30;2.00;;;22.40;99.90;;;;;;5012563;28;20026;-68
2021/12/13 05:25:58;;;;;;;10.95;1.83;;;22.40;99.90;;;;;;5013022;28;20061;-68
2021/12/13 05:28:38;;;;;;;11.05;2.25;;;22.50;99.90;;;;;;5016934;28;20376;-67
2021/12/13 05:31:11;;;;;;;7.85;1.58;;;22.50;99.90;;;;;;4994550;28;20030;-68
2021/12/13 05:33:41;;;;;;;12.57;2.42;;;22.60;99.90;;;;;;5024700;28;20125;-68
2021/12/13 05:36:19;;;;;;;7.80;1.80;;;22.30;99.90;;;;;;5030198;28;20036;-67
2021/12/13 05:38:49;;;;;;;11.60;2.47;;;22.30;99.90;;;;;;5018995;28;20023;-67
2021/12/13 05:41:23;;;;;;;13.45;1.60;;;22.40;99.90;;;;;;5015152;28;20030;-68
2021/12/13 05:43:54;;;;;;;11.13;1.98;;;22.40;99.90;;;;;;5022657;28;20033;-68
2021/12/13 05:46:44;;;;;;;7.15;1.77;;;22.70;99.90;;;;;;5045537;28;20044;-68
2021/12/13 05:49:32;;;;;;;11.52;2.38;;;22.50;99.90;;;;;;5032805;28;20065;-67
2021/12/13 05:52:34;;;;;;;12.50;2.42;;;22.30;99.90;;;;;;5023341;28;20022;-67
2021/12/13 05:55:09;;;;;;;10.52;2.00;;;22.60;99.90;;;;;;4998810;28;20061;-67
2021/12/13 05:57:42;;;;;;;11.32;1.95;;;22.20;99.90;;;;;;5023027;28;20022;-66
2021/12/13 06:00:29;;;;;;;8.10;1.85;;;22.40;99.90;;;;;;5033155;28;20040;-66
2021/12/13 06:02:59;;;;;;;7.32;1.13;;;22.50;99.90;;;;;;5031075;28;20033;-67
2021/12/13 06:05:43;;;;;;;10.52;1.77;;;22.50;99.90;;;;;;5030050;28;20422;-67
2021/12/13 06:08:17;;;;;;;6.27;2.07;;;22.30;99.90;;;;;;5035077;28;20064;-67
2021/12/13 06:10:47;;;;;;;9.68;1.88;;;22.20;99.90;;;;;;5031294;28;20049;-66
2021/12/13 06:13:50;;;;;;;10.07;1.90;;;22.20;99.90;;;;;;5031301;28;20083;-67
2021/12/13 06:16:34;;;;;;;7.82;2.25;;;22.20;99.90;;;;;;5029098;28;20022;-67
2021/12/13 06:19:10;;;;;;;13.18;1.80;;;22.40;99.90;;;;;;5026339;28;20036;-67
2021/12/13 06:21:52;;;;;;;13.00;1.60;;;22.10;99.90;;;;;;5028983;28;20037;-67
2021/12/13 06:24:52;;;;;;;10.45;2.20;;;22.20;99.90;;;;;;5007169;28;20040;-67
2021/12/13 06:27:25;;;;;;;11.82;2.13;;;22.20;99.90;;;;;;5001185;28;20027;-67
2021/12/13 06:29:59;;;;;;;11.35;1.75;;;22.50;99.90;;;;;;5016412;28;20030;-67
2021/12/13 06:32:30;;;;;;;18.02;2.33;;;22.50;99.90;;;;;;5016058;28;20022;-67
2021/12/13 06:34:59;;;;;;;13.90;1.77;;;22.70;99.90;;;;;;5014982;28;20028;-67
2021/12/13 06:37:31;;;;;;;12.45;2.10;;;22.70;99.90;;;;;;5014887;28;20120;-68
2021/12/13 06:40:27;;;;;;;14.98;1.95;;;23.00;99.90;;;;;;5015143;28;20018;-68
2021/12/13 06:43:03;;;;;;;11.02;2.05;;;23.70;99.90;;;;;;5020914;28;20107;-68
2021/12/13 06:45:37;;;;;;;12.82;1.75;;;24.10;99.90;;;;;;5013797;28;20030;-67
2021/12/13 06:48:06;;;;;;;9.27;2.05;;;22.90;99.90;;;;;;5015746;28;20072;-68
2021/12/13 06:50:40;;;;;;;8.73;1.80;;;21.90;99.90;;;;;;5013777;28;20049;-68
2021/12/13 06:53:16;;;;;;;12.40;1.45;;;21.80;99.90;;;;;;5013388;28;20057;-69
2021/12/13 06:55:45;;;;;;;10.95;1.83;;;21.40;99.90;;;;;;5013456;28;20037;-68
2021/12/13 06:58:26;;;;;;;10.70;1.90;;;21.50;99.90;;;;;;5011979;28;20065;-68
2021/12/13 07:01:04;;;;;;;9.45;2.08;;;21.70;99.90;;;;;;5010959;28;20019;-68
2021/12/13 07:03:34;;;;;;;8.45;1.80;;;21.20;99.90;;;;;;5009054;28;20030;-68
2021/12/13 07:06:05;;;;;;;12.60;1.65;;;21.70;99.90;;;;;;5015290;28;20026;-68
2021/12/13 07:08:36;;;;;;;11.82;2.13;;;21.60;99.90;;;;;;5012402;28;20109;-68
2021/12/13 07:11:13;;;;;;;7.55;1.77;;;21.30;99.90;;;;;;5012328;28;20054;-68
2021/12/13 07:13:59;;;;;;;10.23;1.88;;;21.40;99.90;;;;;;5010412;28;20026;-69
2021/12/13 07:16:33;;;;;;;13.00;2.08;;;21.30;99.90;;;;;;5010039;28;20033;-68
2021/12/13 07:19:06;;;;;;;10.07;1.95;;;22.00;99.90;;;;;;5011598;28;20034;-68
2021/12/13 07:21:46;;;;;;;8.60;1.30;;;21.90;99.90;;;;;;5013101;28;20032;-69
2021/12/13 07:24:25;;;;;;;8.63;1.42;;;21.80;99.90;;;;;;4999759;28;20037;-69
2021/12/13 07:27:09;;;;;;;6.95;1.20;;;21.70;99.90;;;;;;4993490;28;20037;-69
2021/12/13 07:29:36;;;;;;;8.03;1.33;;;21.40;99.90;;;;;;4976521;28;20046;-68
2021/12/13 07:32:17;;;;;;;13.38;2.03;;;21.20;99.90;;;;;;4994792;28;20071;-68
2021/12/13 07:35:09;;;;;;;10.52;2.80;;;20.80;99.90;;;;;;5016395;28;20022;-68
2021/12/13 07:37:42;;;;;;;14.27;2.85;;;21.00;99.90;;;;;;5018020;28;20030;-67
2021/12/13 07:40:21;;;;;;;9.55;1.50;;;21.10;99.90;;;;;;5016474;28;20380;-68
2021/12/13 07:43:04;;;;;;;12.10;1.70;;;21.20;99.90;;;;;;5016227;28;20371;-68
2021/12/13 07:45:33;;;;;;;11.50;1.65;;;21.30;99.90;;;;;;5016999;28;20030;-67
2021/12/13 07:48:08;;;;;;;12.38;1.50;;;22.40;99.90;;;;;;5015594;28;20429;-67
2021/12/13 07:50:36;;;;;;;6.75;1.73;;;22.10;99.90;;;;;;5016071;28;20034;-67
2021/12/13 07:53:09;;;;;;;12.35;1.92;;;21.30;99.90;;;;;;5014376;28;20032;-66
2021/12/13 07:55:46;;;;;;;11.70;1.63;;;20.70;99.90;;;;;;5008117;28;20170;-67
2021/12/13 07:58:31;;;;;;;6.35;1.40;;;20.50;99.90;;;;;;5001011;28;20076;-67
2021/12/13 08:01:27;;;;;;;9.65;1.75;;;20.30;99.90;;;;;;5016510;28;20471;-67
2021/12/13 08:04:05;;;;;;;6.45;1.73;;;20.10;99.90;;;;;;5014337;28;20505;-67
2021/12/13 08:06:40;;;;;;;10.77;2.17;;;20.20;99.90;;;;;;4996823;28;20030;-67
2021/12/13 08:09:13;;;;;;;10.77;2.65;;;20.20;99.90;;;;;;4999295;28;20053;-66
2021/12/13 08:11:55;;;;;;;10.60;2.00;;;20.20;99.90;;;;;;5011740;28;20091;-67
2021/12/13 08:14:38;;;;;;;9.48;2.10;;;20.10;99.90;;;;;;5018805;28;20443;-67
2021/12/13 08:17:18;;;;;;;10.80;1.95;;;20.00;99.90;;;;;;5019961;28;20546;-67
2021/12/13 08:20:06;;;;;;;10.95;2.67;;;19.90;99.90;;;;;;5016621;28;20096;-67
2021/12/13 08:22:41;;;;;;;9.75;1.33;;;19.90;99.90;;;;;;5016153;28;20060;-67
2021/12/13 08:25:10;;;;;;;;;;;19.70;99.90;;;;;;5008333;28;20038;-67
2021/12/13 08:27:43;;;;;;;6.15;1.73;;;19.50;99.90;;;;;;5001332;28;19913;-68
2021/12/13 08:30:19;;;;;;;16.15;2.30;;;19.50;99.90;;;;;;5016116;28;20040;-67
2021/12/13 08:32:58;;;;;;;13.75;1.58;;;19.60;99.90;;;;;;5001156;28;20029;-67
2021/12/13 08:35:26;;;;;;;7.95;1.90;;;19.50;99.90;;;;;;5018606;28;20030;-67
2021/12/13 08:37:59;;;;;;;10.98;1.40;;;19.50;99.90;;;;;;5016926;28;20026;-66
2021/12/13 08:40:31;;;;;;;14.70;2.17;;;19.50;99.90;;;;;;5019964;28;20029;-66
2021/12/13 08:43:00;;;;;;;10.82;1.52;;;19.50;99.90;;;;;;5017518;28;20267;-67
2021/12/13 08:45:39;;;;;;;12.75;2.22;;;19.40;99.90;;;;;;5019676;28;20030;-67
2021/12/13 08:48:15;;;;;;;15.93;3.30;;;19.40;99.90;;;;;;5020519;28;20025;-68
2021/12/13 08:50:53;;;;;;;15.30;2.63;;;19.30;99.90;;;;;;5020939;28;20079;-68
2021/12/13 08:53:44;;;;;;;11.05;1.48;;;19.40;99.90;;;;;;5013435;28;20053;-68
2021/12/13 08:56:23;;;;;;;14.38;1.70;;;19.50;99.90;;;;;;4998573;28;20177;-67
2021/12/13 08:59:10;;;;;;;9.55;2.17;;;19.40;99.90;;;;;;5012554;28;20196;-68
2021/12/13 09:01:50;;;;;;;10.15;1.70;;;19.30;99.90;;;;;;4999151;28;20022;-68
2021/12/13 09:04:30;;;;;;;11.55;2.33;;;19.20;99.90;;;;;;5011222;28;20048;-68
2021/12/13 09:07:00;;;;;;;12.13;2.13;;;19.20;99.90;;;;;;4999108;28;20026;-68
2021/12/13 09:09:29;;;;;;;12.18;1.92;;;19.00;99.90;;;;;;4997799;28;20140;-68
2021/12/13 09:12:07;;;;;;;15.15;2.95;;;19.00;99.90;;;;;;4996631;28;20462;-68
2021/12/13 09:14:41;;;;;;;14.52;2.25;;;19.10;99.90;;;;;;5014120;28;20053;-67
2021/12/13 09:17:21;;;;;;;13.48;1.63;;;19.00;99.90;;;;;;5015275;28;20038;-68
2021/12/13 09:19:51;;;;;;;14.65;2.22;;;18.90;99.90;;;;;;5010708;28;20034;-68
2021/12/13 09:22:27;;;;;;;11.30;2.10;;;18.90;99.90;;;;;;5020212;28;20029;-67
2021/12/13 09:25:07;;;;;;;10.40;1.45;;;18.90;99.90;;;;;;5015267;28;20470;-67
2021/12/13 09:27:40;;;;;;;12.55;1.90;;;18.90;99.90;;;;;;5018531;28;20052;-67
2021/12/13 09:30:17;;;;;;;14.32;2.25;;;18.90;99.90;;;;;;5018454;28;20056;-66
2021/12/13 09:33:16;;;;;;;12.63;2.30;;;18.90;99.90;;;;;;5032194;28;20022;-67
2021/12/13 09:36:04;;;;;;;16.02;1.95;;;18.80;99.90;;;;;;5015888;28;20038;-67
2021/12/13 09:38:46;;;;;;;18.67;2.75;;;18.80;99.90;;;;;;5015441;28;20038;-67
2021/12/13 09:41:29;;;;;;;8.68;2.40;;;18.80;99.90;;;;;;5019551;28;20105;-67
2021/12/13 09:44:06;;;;;;;15.35;2.10;;;18.80;99.90;;;;;;5018078;28;20498;-67
2021/12/13 09:46:56;;;;;;;17.92;2.72;;;18.80;99.90;;;;;;5000939;28;20054;-67
2021/12/13 09:49:35;;;;;;;13.15;1.63;;;18.80;99.90;;;;;;5001438;28;20426;-67
2021/12/13 09:52:11;;;;;;;13.38;1.75;;;18.80;99.90;;;;;;5002650;28;20053;-67
2021/12/13 09:54:44;;;;;;;13.27;2.15;;;18.70;99.90;;;;;;5003192;28;20035;-67
2021/12/13 09:57:16;;;;;;;12.23;1.95;;;18.70;99.90;;;;;;5002132;28;20033;-67
2021/12/13 09:59:52;;;;;;;18.30;1.63;;;18.70;99.90;;;;;;5015402;28;20022;-67
2021/12/13 10:02:29;;;;;;;14.75;1.48;;;18.70;99.90;;;;;;5021594;28;20034;-67
2021/12/13 10:04:57;;;;;;;9.15;1.92;;;18.70;99.90;;;;;;5025329;28;20032;-67
2021/12/13 10:07:34;;;;;;;10.40;1.75;;;18.70;99.90;;;;;;5035764;28;20049;-68
2021/12/13 10:10:07;;;;;;;9.50;1.67;;;18.70;99.90;;;;;;5017393;28;20026;-67
2021/12/13 10:12:43;;;;;;;8.77;1.23;;;18.70;99.90;;;;;;5022610;28;20100;-67
2021/12/13 10:15:18;;;;;;;9.23;1.75;;;18.70;99.90;;;;;;5021562;28;20083;-67
2021/12/13 10:17:49;;;;;;;10.73;1.25;;;18.70;99.90;;;;;;5024601;28;20026;-67
2021/12/13 10:20:29;;;;;;;12.43;2.63;;;18.70;99.90;;;;;;5024530;28;20064;-67
2021/12/13 10:22:57;;;;;;;9.13;1.20;;;18.60;99.90;;;;;;5017498;28;20096;-67
2021/12/13 10:25:36;;;;;;;8.45;1.50;;;18.70;99.90;;;;;;5017299;28;20441;-67
2021/12/13 10:28:09;;;;;;;13.77;1.52;;;18.70;99.90;;;;;;5016418;28;20034;-68
2021/12/13 10:30:53;;;;;;;9.70;1.60;;;18.70;99.90;;;;;;5014944;28;20063;-68
2021/12/13 10:33:23;;;;;;;9.15;1.90;;;18.70;99.90;;;;;;4998653;28;20468;-67
2021/12/13 10:35:52;;;;;;;13.52;1.70;;;18.70;99.90;;;;;;5002878;28;20030;-68
2021/12/13 10:38:29;;;;;;;9.55;1.73;;;18.70;99.90;;;;;;5018460;28;20033;-68
2021/12/13 10:41:04;;;;;;;12.50;1.85;;;18.70;99.90;;;;;;4993883;28;20154;-68
2021/12/13 10:43:43;;;;;;;14.18;2.45;;;18.70;99.90;;;;;;4994666;28;20030;-68
2021/12/13 10:46:20;;;;;;;13.85;1.95;;;18.60;99.90;;;;;;4993486;28;20426;-68
2021/12/13 10:48:55;;;;;;;14.02;2.42;;;18.60;99.90;;;;;;5009675;28;20026;-68
2021/12/13 10:51:31;;;;;;;12.57;1.42;;;18.60;99.90;;;;;;5009768;28;20498;-68
2021/12/13 10:54:04;;;;;;;9.38;1.60;;;18.60;99.90;;;;;;5015963;28;20049;-68
2021/12/13 10:56:42;;;;;;;9.50;1.70;;;18.60;99.90;;;;;;5014613;28;20014;-68
2021/12/13 10:59:14;;;;;;;16.50;2.03;;;18.60;99.90;;;;;;5013481;28;20033;-67
2021/12/13 11:01:50;;;;;;;11.02;2.30;;;18.60;99.90;;;;;;5014362;28;20032;-68
2021/12/13 11:04:25;;;;;;;7.53;1.02;;;18.60;99.90;;;;;;5015132;28;20099;-68
2021/12/13 11:06:54;;;;;;;10.60;1.75;;;18.50;99.90;;;;;;5016086;28;20033;-67
2021/12/13 11:09:24;;;;;;;14.43;2.67;;;18.60;99.90;;;;;;5019586;28;20082;-68
2021/12/13 11:11:59;;;;;;;11.07;1.73;;;18.50;99.90;;;;;;5017965;28;20045;-68
2021/12/13 11:14:26;;;;;;;;;;;18.50;99.90;;;;;;5018085;28;20088;-68
2021/12/13 11:17:01;;;;;;;17.58;3.45;;;18.50;99.90;;;;;;5018082;28;20441;-67
2021/12/13 11:19:33;;;;;;;15.77;2.03;;;18.50;99.90;;;;;;5018470;28;20390;-67
2021/12/13 11:22:05;;;;;;;12.40;1.92;;;18.50;99.90;;;;;;5017337;28;20018;-67
2021/12/13 11:24:35;;;;;;;14.55;2.22;;;18.40;99.90;;;;;;5018107;28;20483;-67
2021/12/13 11:27:10;;;;;;;13.35;2.45;;;18.50;99.90;;;;;;5017705;28;20509;-67
2021/12/13 11:29:41;;;;;;;15.27;2.28;;;18.50;99.90;;;;;;5017546;28;20034;-67
2021/12/13 11:32:59;;;;;;;14.48;2.38;;;18.50;99.90;;;;;;5014825;28;20022;-67
2021/12/13 11:35:59;;;;;;;10.90;1.90;;;18.50;99.90;;;;;;4975921;28;20045;-68
2021/12/13 11:39:02;;;;;;;12.77;1.50;;;18.40;99.90;;;;;;5016760;28;20502;-68
2021/12/13 11:41:51;;;;;;;10.10;1.42;;;18.50;99.90;;;;;;5017754;28;20026;-68
2021/12/13 11:45:03;;;;;;;6.60;0.98;;;18.40;99.90;;;;;;5031388;28;20041;-68
2021/12/13 11:47:32;;;;;;;11.52;1.63;;;18.50;99.90;;;;;;5017669;28;20025;-68
2021/12/13 11:50:24;;;;;;;18.17;1.67;;;18.50;99.90;;;;;;5017406;28;20068;-68
2021/12/13 11:53:09;;;;;;;14.70;2.22;;;18.40;99.90;;;;;;5032042;28;20053;-68
2021/12/13 11:56:17;;;;;;;7.63;1.45;;;18.50;99.90;;;;;;5016571;28;20387;-68
2021/12/13 11:59:19;;;;;;;14.60;1.63;;;18.50;99.90;;;;;;4995196;28;20089;-68
2021/12/13 12:02:16;;;;;;;7.95;1.45;;;18.50;99.90;;;;;;4980539;28;20454;-68
2021/12/13 12:05:11;;;;;;;6.90;0.85;;;18.50;99.90;;;;;;4995773;28;20038;-68
2021/12/13 12:08:15;;;;;;;9.02;1.65;;;18.50;99.90;;;;;;4997469;28;20042;-68
2021/12/13 12:11:17;;;;;;;13.35;2.28;;;18.50;99.90;;;;;;4997046;28;20053;-68
2021/12/13 12:14:12;;;;;;;12.70;1.42;;;18.60;99.90;;;;;;4997357;28;20029;-67
2021/12/13 12:16:50;;;;;;;;;;;18.60;99.90;;;;;;4996715;28;20038;-68
2021/12/13 12:19:24;;;;;;;11.45;1.70;;;18.60;99.90;;;;;;5017068;28;19905;-67
2021/12/13 12:21:55;;;;;;;9.18;1.33;;;18.60;99.90;;;;;;5018037;28;20580;-68
2021/12/13 12:24:30;;;;;;;12.35;1.67;;;18.60;99.90;;;;;;5017493;28;20018;-68
2021/12/13 12:27:19;;;;;;;11.23;2.20;;;18.50;99.90;;;;;;5004165;28;20022;-68
2021/12/13 12:30:09;;;;;;;11.30;1.77;;;18.50;99.90;;;;;;4997865;28;20108;-67
2021/12/13 12:32:54;;;;;;;13.05;2.42;;;18.50;99.90;;;;;;5007622;28;20026;-68
2021/12/13 12:35:30;;;;;;;8.95;1.55;;;18.50;99.90;;;;;;5016681;28;20026;-68
2021/12/13 12:37:58;;;;;;;9.57;1.33;;;18.40;99.90;;;;;;5015837;28;20364;-68
2021/12/13 12:40:28;;;;;;;11.75;1.55;;;18.30;99.90;;;;;;5015191;28;20034;-68
2021/12/13 12:42:59;;;;;;;11.93;2.33;;;18.40;99.90;;;;;;5012505;28;20425;-67
2021/12/13 12:45:29;;;;;;;8.48;1.45;;;18.30;99.90;;;;;;5031026;28;20125;-68
2021/12/13 12:48:01;;;;;;;15.57;2.85;;;18.20;99.90;;;;;;5015812;28;20092;-67
2021/12/13 12:50:32;;;;;;;18.52;2.63;;;18.20;99.90;;;;;;5031081;28;20030;-67
2021/12/13 12:53:10;;;;;;;8.40;1.85;;;18.10;99.90;;;;;;5015583;28;20022;-67
2021/12/13 12:55:44;;;;;;;14.50;2.88;;;18.10;99.90;;;;;;5015104;28;20022;-67
2021/12/13 12:58:20;;;;;;;11.52;1.90;;;18.10;99.90;;;;;;5014975;28;20127;-67
2021/12/13 13:00:51;;;;;;;14.07;1.90;;;18.00;99.90;;;;;;5030443;28;20041;-67
2021/12/13 13:03:32;;;;;;;12.30;2.55;;;17.90;99.90;;;;;;5015338;28;20022;-67
2021/12/13 13:06:05;;;;;;;8.45;1.83;;;17.90;99.90;;;;;;5029784;28;20509;-67
2021/12/13 13:08:36;;;;;;;11.25;1.90;;;17.90;99.90;;;;;;5013755;28;20072;-67
2021/12/13 13:13:53;;;;;;;11.70;2.15;;;17.90;99.90;;;;;;5015225;28;20041;-67
2021/12/13 13:16:29;;;;;;;7.63;1.25;;;17.90;99.90;;;;;;5015620;28;20018;-68
2021/12/13 13:18:56;;;;;;;9.82;1.73;;;17.80;99.90;;;;;;5015138;28;20032;-67
2021/12/13 13:21:25;;;;;;;10.70;1.85;;;17.80;99.90;;;;;;5016524;28;20042;-67
2021/12/13 13:23:59;;;;;;;12.52;1.92;;;17.70;99.90;;;;;;4996128;28;20053;-67
2021/12/13 13:26:30;;;;;;;;;;;17.70;99.90;;;;;;5009260;28;20022;-67
2021/12/13 13:29:03;;;;;;;11.77;2.63;;;17.60;99.90;;;;;;5015207;28;19960;-67
2021/12/13 13:31:30;;;;;;;16.23;2.67;;;17.70;99.90;;;;;;5014212;28;20018;-67
2021/12/13 13:34:18;;;;;;;15.52;2.40;;;17.60;99.90;;;;;;5013141;28;20053;-67
2021/12/13 13:36:49;;;;;;;12.27;2.35;;;17.60;99.90;;;;;;5011550;28;20049;-68
2021/12/13 13:39:22;;;;;;;8.80;1.77;;;17.60;99.90;;;;;;5013469;28;20056;-67
2021/12/13 13:41:55;;;;;;;10.30;2.23;;;17.50;99.90;;;;;;5013221;28;20037;-67
2021/12/13 13:44:25;;;;;;;11.32;1.73;;;17.60;99.90;;;;;;5014324;28;20054;-67